SLCB/CBB METAR and TAF weather

Enter ICAO airport designator
Station Type Date Time Source
SLCB METAR 2020/08/11 01:00 UTC NOAA

SLCB 110100Z 16005KT 9999 NSC 18/M03 Q1019


Station Type Date Time Source
SLCB Decoded METAR 2020/08/11 01:00 UTC NOAA

Cochabamba, Bolivia (SLCB) 17-25S 066-11W 2570M
Aug 10, 2020 - 09:00 PM EDT / 2020.08.11 0100 UTC
Wind: from the SSE (160 degrees) at 6 MPH (5 KT):0
Visibility: greater than 7 mile(s):0
Temperature: 64 F (18 C)
Dew Point: 26 F (-3 C)
Relative Humidity: 23%
Pressure (altimeter): 30.09 in. Hg (1019 hPa)
ob: SLCB 110100Z 16005KT 9999 NSC 18/M03 Q1019
cycle: 1

Station Type Date Time Source
SLCB TAF 2020/08/10 18:06 UTC NOAA

TAF TAF SLCB 101650Z 1018/1118 30010KT 9999 NSC TX30/1019Z TN04/1111Z
BECMG 1022/1024 12010KT
BECMG 1102/1104 00000KT FEW030

Example: see airport list